sensor_id;sensor_type;location;lat;lon;timestamp;P1;durP1;ratioP1;P2;durP2;ratioP2
10805;SDS011;5455;53.224;6.000;2022-10-31T00:01:19;6.87;;;4.17;;
10805;SDS011;5455;53.224;6.000;2022-10-31T00:03:51;5.67;;;4.10;;
10805;SDS011;5455;53.224;6.000;2022-10-31T00:06:18;7.67;;;3.97;;
10805;SDS011;5455;53.224;6.000;2022-10-31T00:08:46;9.67;;;3.83;;
10805;SDS011;5455;53.224;6.000;2022-10-31T00:11:13;5.87;;;3.90;;
10805;SDS011;5455;53.224;6.000;2022-10-31T00:13:40;6.83;;;3.60;;
10805;SDS011;5455;53.224;6.000;2022-10-31T00:16:13;10.33;;;4.07;;
10805;SDS011;5455;53.224;6.000;2022-10-31T00:18:43;7.53;;;3.80;;
10805;SDS011;5455;53.224;6.000;2022-10-31T00:21:14;6.27;;;3.50;;
10805;SDS011;5455;53.224;6.000;2022-10-31T00:23:42;7.70;;;4.10;;
10805;SDS011;5455;53.224;6.000;2022-10-31T00:26:09;6.90;;;4.17;;
10805;SDS011;5455;53.224;6.000;2022-10-31T00:28:36;9.23;;;4.37;;
10805;SDS011;5455;53.224;6.000;2022-10-31T00:31:04;8.07;;;4.03;;
10805;SDS011;5455;53.224;6.000;2022-10-31T00:33:37;7.77;;;4.27;;
10805;SDS011;5455;53.224;6.000;2022-10-31T00:36:05;7.40;;;4.40;;
10805;SDS011;5455;53.224;6.000;2022-10-31T00:38:33;8.97;;;3.83;;
10805;SDS011;5455;53.224;6.000;2022-10-31T00:41:00;6.57;;;4.17;;
10805;SDS011;5455;53.224;6.000;2022-10-31T00:43:27;6.60;;;4.30;;
10805;SDS011;5455;53.224;6.000;2022-10-31T00:45:54;7.33;;;4.10;;
10805;SDS011;5455;53.224;6.000;2022-10-31T00:48:23;8.40;;;4.17;;
10805;SDS011;5455;53.224;6.000;2022-10-31T00:50:52;10.80;;;4.60;;
10805;SDS011;5455;53.224;6.000;2022-10-31T00:53:19;10.07;;;4.53;;
10805;SDS011;5455;53.224;6.000;2022-10-31T00:55:46;8.33;;;4.47;;
10805;SDS011;5455;53.224;6.000;2022-10-31T00:58:14;6.73;;;4.33;;
10805;SDS011;5455;53.224;6.000;2022-10-31T01:00:41;11.23;;;4.73;;
10805;SDS011;5455;53.224;6.000;2022-10-31T01:03:12;7.87;;;4.50;;
10805;SDS011;5455;53.224;6.000;2022-10-31T01:05:40;6.90;;;4.03;;
10805;SDS011;5455;53.224;6.000;2022-10-31T01:08:08;7.63;;;4.07;;
10805;SDS011;5455;53.224;6.000;2022-10-31T01:10:34;7.03;;;3.90;;
10805;SDS011;5455;53.224;6.000;2022-10-31T01:13:02;8.33;;;4.33;;
10805;SDS011;5455;53.224;6.000;2022-10-31T01:15:28;6.30;;;4.47;;
10805;SDS011;5455;53.224;6.000;2022-10-31T01:17:55;8.23;;;4.40;;
10805;SDS011;5455;53.224;6.000;2022-10-31T01:20:23;6.33;;;4.10;;
10805;SDS011;5455;53.224;6.000;2022-10-31T01:22:50;7.60;;;4.37;;
10805;SDS011;5455;53.224;6.000;2022-10-31T01:25:17;6.77;;;4.27;;
10805;SDS011;5455;53.224;6.000;2022-10-31T01:27:44;7.33;;;3.93;;
10805;SDS011;5455;53.224;6.000;2022-10-31T01:30:11;8.43;;;4.20;;
10805;SDS011;5455;53.224;6.000;2022-10-31T01:32:38;7.23;;;4.17;;
10805;SDS011;5455;53.224;6.000;2022-10-31T01:35:05;8.67;;;4.33;;
10805;SDS011;5455;53.224;6.000;2022-10-31T01:37:32;8.67;;;4.13;;
10805;SDS011;5455;53.224;6.000;2022-10-31T01:39:59;6.67;;;4.07;;
10805;SDS011;5455;53.224;6.000;2022-10-31T01:42:26;6.43;;;4.30;;
10805;SDS011;5455;53.224;6.000;2022-10-31T01:44:55;7.17;;;4.27;;
10805;SDS011;5455;53.224;6.000;2022-10-31T01:47:30;5.97;;;3.77;;
10805;SDS011;5455;53.224;6.000;2022-10-31T01:50:00;5.80;;;3.90;;
10805;SDS011;5455;53.224;6.000;2022-10-31T01:52:44;7.40;;;4.30;;
10805;SDS011;5455;53.224;6.000;2022-10-31T01:55:32;7.53;;;4.00;;
10805;SDS011;5455;53.224;6.000;2022-10-31T01:58:05;7.00;;;3.87;;
10805;SDS011;5455;53.224;6.000;2022-10-31T02:00:36;8.53;;;4.90;;
10805;SDS011;5455;53.224;6.000;2022-10-31T02:03:03;5.93;;;4.33;;
10805;SDS011;5455;53.224;6.000;2022-10-31T02:05:30;7.43;;;4.53;;
10805;SDS011;5455;53.224;6.000;2022-10-31T02:10:48;6.43;;;4.23;;
10805;SDS011;5455;53.224;6.000;2022-10-31T02:13:16;8.13;;;4.70;;
10805;SDS011;5455;53.224;6.000;2022-10-31T02:15:48;9.03;;;3.93;;
10805;SDS011;5455;53.224;6.000;2022-10-31T02:18:18;6.60;;;4.37;;
10805;SDS011;5455;53.224;6.000;2022-10-31T02:21:07;8.83;;;4.20;;
10805;SDS011;5455;53.224;6.000;2022-10-31T02:23:45;7.73;;;4.60;;
10805;SDS011;5455;53.224;6.000;2022-10-31T02:32:26;7.37;;;4.90;;
10805;SDS011;5455;53.224;6.000;2022-10-31T02:37:27;9.90;;;4.87;;
10805;SDS011;5455;53.224;6.000;2022-10-31T02:40:10;9.10;;;5.10;;
10805;SDS011;5455;53.224;6.000;2022-10-31T02:48:20;8.37;;;4.57;;
10805;SDS011;5455;53.224;6.000;2022-10-31T02:50:57;10.77;;;4.87;;
10805;SDS011;5455;53.224;6.000;2022-10-31T02:53:31;7.77;;;4.60;;
10805;SDS011;5455;53.224;6.000;2022-10-31T02:56:15;8.43;;;4.70;;
10805;SDS011;5455;53.224;6.000;2022-10-31T02:58:48;8.03;;;4.37;;
10805;SDS011;5455;53.224;6.000;2022-10-31T03:06:43;8.97;;;4.97;;
10805;SDS011;5455;53.224;6.000;2022-10-31T03:17:20;6.83;;;5.07;;
10805;SDS011;5455;53.224;6.000;2022-10-31T03:19:52;6.33;;;4.80;;
10805;SDS011;5455;53.224;6.000;2022-10-31T03:22:25;6.97;;;4.90;;
10805;SDS011;5455;53.224;6.000;2022-10-31T03:24:57;6.73;;;4.60;;
10805;SDS011;5455;53.224;6.000;2022-10-31T03:27:27;8.03;;;4.90;;
10805;SDS011;5455;53.224;6.000;2022-10-31T03:29:59;8.03;;;5.37;;
10805;SDS011;5455;53.224;6.000;2022-10-31T03:35:01;8.80;;;5.07;;
10805;SDS011;5455;53.224;6.000;2022-10-31T03:37:33;9.73;;;5.20;;
10805;SDS011;5455;53.224;6.000;2022-10-31T03:40:02;8.03;;;5.00;;
10805;SDS011;5455;53.224;6.000;2022-10-31T03:42:34;12.33;;;5.00;;
10805;SDS011;5455;53.224;6.000;2022-10-31T03:45:06;9.60;;;5.60;;
10805;SDS011;5455;53.224;6.000;2022-10-31T03:47:39;7.27;;;5.20;;
10805;SDS011;5455;53.224;6.000;2022-10-31T03:50:10;8.47;;;5.00;;
10805;SDS011;5455;53.224;6.000;2022-10-31T03:57:57;7.13;;;5.20;;
10805;SDS011;5455;53.224;6.000;2022-10-31T04:00:30;7.87;;;4.97;;
10805;SDS011;5455;53.224;6.000;2022-10-31T04:03:03;9.57;;;5.40;;
10805;SDS011;5455;53.224;6.000;2022-10-31T04:05:37;9.30;;;5.37;;
10805;SDS011;5455;53.224;6.000;2022-10-31T04:08:06;10.63;;;5.90;;
10805;SDS011;5455;53.224;6.000;2022-10-31T04:10:37;7.40;;;4.80;;
10805;SDS011;5455;53.224;6.000;2022-10-31T04:13:09;6.97;;;4.47;;
10805;SDS011;5455;53.224;6.000;2022-10-31T04:15:46;10.30;;;4.63;;
10805;SDS011;5455;53.224;6.000;2022-10-31T04:18:17;7.97;;;5.50;;
10805;SDS011;5455;53.224;6.000;2022-10-31T04:20:44;8.10;;;4.93;;
10805;SDS011;5455;53.224;6.000;2022-10-31T04:23:18;6.07;;;4.80;;
10805;SDS011;5455;53.224;6.000;2022-10-31T04:25:49;8.37;;;5.03;;
10805;SDS011;5455;53.224;6.000;2022-10-31T04:28:17;9.03;;;4.60;;
10805;SDS011;5455;53.224;6.000;2022-10-31T04:30:50;8.03;;;4.80;;
10805;SDS011;5455;53.224;6.000;2022-10-31T04:33:18;7.57;;;4.53;;
10805;SDS011;5455;53.224;6.000;2022-10-31T04:35:46;7.33;;;5.00;;
10805;SDS011;5455;53.224;6.000;2022-10-31T04:38:13;12.30;;;5.30;;
10805;SDS011;5455;53.224;6.000;2022-10-31T04:40:42;6.80;;;4.57;;
10805;SDS011;5455;53.224;6.000;2022-10-31T04:43:29;9.40;;;5.17;;
10805;SDS011;5455;53.224;6.000;2022-10-31T04:45:58;6.40;;;4.27;;
10805;SDS011;5455;53.224;6.000;2022-10-31T04:48:25;7.50;;;5.00;;
10805;SDS011;5455;53.224;6.000;2022-10-31T04:50:52;12.87;;;6.57;;
10805;SDS011;5455;53.224;6.000;2022-10-31T04:53:19;7.70;;;4.80;;
10805;SDS011;5455;53.224;6.000;2022-10-31T04:56:06;9.63;;;5.47;;
10805;SDS011;5455;53.224;6.000;2022-10-31T04:58:40;8.30;;;4.87;;
10805;SDS011;5455;53.224;6.000;2022-10-31T05:01:09;6.90;;;4.70;;
10805;SDS011;5455;53.224;6.000;2022-10-31T05:03:36;6.43;;;4.60;;
10805;SDS011;5455;53.224;6.000;2022-10-31T05:06:03;7.60;;;4.83;;
10805;SDS011;5455;53.224;6.000;2022-10-31T05:08:30;8.80;;;4.67;;
10805;SDS011;5455;53.224;6.000;2022-10-31T05:11:01;9.13;;;4.60;;
10805;SDS011;5455;53.224;6.000;2022-10-31T05:13:31;7.47;;;4.90;;
10805;SDS011;5455;53.224;6.000;2022-10-31T05:16:26;6.53;;;5.10;;
10805;SDS011;5455;53.224;6.000;2022-10-31T05:19:13;8.40;;;4.67;;
10805;SDS011;5455;53.224;6.000;2022-10-31T05:22:02;8.10;;;4.77;;
10805;SDS011;5455;53.224;6.000;2022-10-31T05:24:31;9.17;;;5.40;;
10805;SDS011;5455;53.224;6.000;2022-10-31T05:26:58;8.27;;;5.37;;
10805;SDS011;5455;53.224;6.000;2022-10-31T05:29:25;7.37;;;5.70;;
10805;SDS011;5455;53.224;6.000;2022-10-31T05:31:52;9.03;;;5.20;;
10805;SDS011;5455;53.224;6.000;2022-10-31T05:34:39;7.53;;;5.20;;
10805;SDS011;5455;53.224;6.000;2022-10-31T05:37:29;7.00;;;5.33;;
10805;SDS011;5455;53.224;6.000;2022-10-31T05:39:56;8.00;;;5.07;;
10805;SDS011;5455;53.224;6.000;2022-10-31T05:42:23;8.43;;;5.40;;
10805;SDS011;5455;53.224;6.000;2022-10-31T05:44:49;12.40;;;5.27;;
10805;SDS011;5455;53.224;6.000;2022-10-31T05:47:36;6.23;;;4.30;;
10805;SDS011;5455;53.224;6.000;2022-10-31T05:50:27;7.47;;;4.77;;
10805;SDS011;5455;53.224;6.000;2022-10-31T05:53:04;8.73;;;5.13;;
10805;SDS011;5455;53.224;6.000;2022-10-31T05:55:36;8.43;;;5.13;;
10805;SDS011;5455;53.224;6.000;2022-10-31T05:58:09;6.37;;;4.63;;
10805;SDS011;5455;53.224;6.000;2022-10-31T06:00:39;7.93;;;5.30;;
10805;SDS011;5455;53.224;6.000;2022-10-31T06:03:09;8.30;;;5.53;;
10805;SDS011;5455;53.224;6.000;2022-10-31T06:05:47;7.73;;;5.27;;
10805;SDS011;5455;53.224;6.000;2022-10-31T06:08:22;9.73;;;5.70;;
10805;SDS011;5455;53.224;6.000;2022-10-31T06:10:49;9.57;;;5.60;;
10805;SDS011;5455;53.224;6.000;2022-10-31T06:13:24;7.47;;;5.17;;
10805;SDS011;5455;53.224;6.000;2022-10-31T06:16:10;8.33;;;4.73;;
10805;SDS011;5455;53.224;6.000;2022-10-31T06:18:39;6.67;;;4.80;;
10805;SDS011;5455;53.224;6.000;2022-10-31T06:21:06;7.73;;;5.10;;
10805;SDS011;5455;53.224;6.000;2022-10-31T06:23:35;8.10;;;4.70;;
10805;SDS011;5455;53.224;6.000;2022-10-31T06:26:22;6.17;;;4.83;;
10805;SDS011;5455;53.224;6.000;2022-10-31T06:28:49;8.93;;;5.80;;
10805;SDS011;5455;53.224;6.000;2022-10-31T06:31:28;8.13;;;5.47;;
10805;SDS011;5455;53.224;6.000;2022-10-31T06:33:55;9.10;;;5.23;;
10805;SDS011;5455;53.224;6.000;2022-10-31T06:36:22;9.37;;;5.67;;
10805;SDS011;5455;53.224;6.000;2022-10-31T06:38:52;8.67;;;5.57;;
10805;SDS011;5455;53.224;6.000;2022-10-31T06:41:22;8.87;;;5.70;;
10805;SDS011;5455;53.224;6.000;2022-10-31T06:43:51;6.13;;;5.00;;
10805;SDS011;5455;53.224;6.000;2022-10-31T06:46:33;6.27;;;4.97;;
10805;SDS011;5455;53.224;6.000;2022-10-31T06:49:21;7.27;;;5.63;;
10805;SDS011;5455;53.224;6.000;2022-10-31T06:51:52;8.73;;;5.30;;
10805;SDS011;5455;53.224;6.000;2022-10-31T06:54:22;8.13;;;5.20;;
10805;SDS011;5455;53.224;6.000;2022-10-31T06:56:49;10.00;;;5.90;;
10805;SDS011;5455;53.224;6.000;2022-10-31T06:59:16;8.43;;;5.23;;
10805;SDS011;5455;53.224;6.000;2022-10-31T07:02:10;8.87;;;5.90;;
10805;SDS011;5455;53.224;6.000;2022-10-31T07:04:39;7.20;;;5.43;;
10805;SDS011;5455;53.224;6.000;2022-10-31T07:07:08;9.97;;;5.70;;
10805;SDS011;5455;53.224;6.000;2022-10-31T07:09:37;8.90;;;5.43;;
10805;SDS011;5455;53.224;6.000;2022-10-31T07:12:04;9.10;;;5.53;;
10805;SDS011;5455;53.224;6.000;2022-10-31T07:14:35;12.67;;;5.87;;
10805;SDS011;5455;53.224;6.000;2022-10-31T07:17:02;8.33;;;5.77;;
10805;SDS011;5455;53.224;6.000;2022-10-31T07:19:36;10.13;;;5.40;;
10805;SDS011;5455;53.224;6.000;2022-10-31T07:22:04;7.87;;;5.20;;
10805;SDS011;5455;53.224;6.000;2022-10-31T07:24:32;14.10;;;6.03;;
10805;SDS011;5455;53.224;6.000;2022-10-31T07:27:18;7.90;;;5.70;;
10805;SDS011;5455;53.224;6.000;2022-10-31T07:29:47;9.37;;;6.03;;
10805;SDS011;5455;53.224;6.000;2022-10-31T07:32:15;9.37;;;6.43;;
10805;SDS011;5455;53.224;6.000;2022-10-31T07:34:50;9.40;;;6.33;;
10805;SDS011;5455;53.224;6.000;2022-10-31T07:37:22;10.93;;;6.77;;
10805;SDS011;5455;53.224;6.000;2022-10-31T07:39:51;11.23;;;7.53;;
10805;SDS011;5455;53.224;6.000;2022-10-31T07:42:18;10.57;;;8.13;;
10805;SDS011;5455;53.224;6.000;2022-10-31T07:44:45;13.10;;;9.27;;
10805;SDS011;5455;53.224;6.000;2022-10-31T07:47:37;13.20;;;8.97;;
10805;SDS011;5455;53.224;6.000;2022-10-31T07:50:33;11.80;;;8.33;;
10805;SDS011;5455;53.224;6.000;2022-10-31T07:53:23;10.43;;;7.00;;
10805;SDS011;5455;53.224;6.000;2022-10-31T07:55:59;10.43;;;6.83;;
10805;SDS011;5455;53.224;6.000;2022-10-31T07:58:28;9.33;;;6.10;;
10805;SDS011;5455;53.224;6.000;2022-10-31T08:00:57;8.80;;;5.60;;
10805;SDS011;5455;53.224;6.000;2022-10-31T08:03:33;10.07;;;5.97;;
10805;SDS011;5455;53.224;6.000;2022-10-31T08:06:08;10.17;;;5.80;;
10805;SDS011;5455;53.224;6.000;2022-10-31T08:08:38;10.77;;;5.77;;
10805;SDS011;5455;53.224;6.000;2022-10-31T08:11:07;8.40;;;5.30;;
10805;SDS011;5455;53.224;6.000;2022-10-31T08:13:34;9.63;;;5.53;;
10805;SDS011;5455;53.224;6.000;2022-10-31T08:16:01;6.83;;;5.30;;
10805;SDS011;5455;53.224;6.000;2022-10-31T08:18:35;8.27;;;5.67;;
10805;SDS011;5455;53.224;6.000;2022-10-31T08:21:06;8.50;;;5.27;;
10805;SDS011;5455;53.224;6.000;2022-10-31T08:23:34;8.17;;;5.83;;
10805;SDS011;5455;53.224;6.000;2022-10-31T08:26:01;9.00;;;5.40;;
10805;SDS011;5455;53.224;6.000;2022-10-31T08:28:29;10.00;;;5.63;;
10805;SDS011;5455;53.224;6.000;2022-10-31T08:30:57;8.03;;;6.00;;
10805;SDS011;5455;53.224;6.000;2022-10-31T08:33:39;8.37;;;6.10;;
10805;SDS011;5455;53.224;6.000;2022-10-31T08:36:26;6.97;;;5.23;;
10805;SDS011;5455;53.224;6.000;2022-10-31T08:39:16;9.40;;;6.03;;
10805;SDS011;5455;53.224;6.000;2022-10-31T08:41:43;8.90;;;6.10;;
10805;SDS011;5455;53.224;6.000;2022-10-31T08:44:12;8.33;;;5.83;;
10805;SDS011;5455;53.224;6.000;2022-10-31T08:46:39;11.57;;;6.00;;
10805;SDS011;5455;53.224;6.000;2022-10-31T08:49:06;9.23;;;5.97;;
10805;SDS011;5455;53.224;6.000;2022-10-31T08:51:33;9.20;;;5.83;;
10805;SDS011;5455;53.224;6.000;2022-10-31T08:54:00;9.20;;;6.03;;
10805;SDS011;5455;53.224;6.000;2022-10-31T08:56:33;7.57;;;6.20;;
10805;SDS011;5455;53.224;6.000;2022-10-31T08:59:03;8.93;;;5.43;;
10805;SDS011;5455;53.224;6.000;2022-10-31T09:02:02;9.23;;;5.63;;
10805;SDS011;5455;53.224;6.000;2022-10-31T09:04:29;9.93;;;5.30;;
10805;SDS011;5455;53.224;6.000;2022-10-31T09:06:57;9.30;;;5.87;;
10805;SDS011;5455;53.224;6.000;2022-10-31T09:09:44;7.40;;;5.23;;
10805;SDS011;5455;53.224;6.000;2022-10-31T09:12:11;8.73;;;5.63;;
10805;SDS011;5455;53.224;6.000;2022-10-31T09:14:58;7.37;;;5.33;;
10805;SDS011;5455;53.224;6.000;2022-10-31T09:17:45;9.57;;;5.73;;
10805;SDS011;5455;53.224;6.000;2022-10-31T09:20:28;9.33;;;5.20;;
10805;SDS011;5455;53.224;6.000;2022-10-31T09:23:00;9.37;;;5.23;;
10805;SDS011;5455;53.224;6.000;2022-10-31T09:25:33;8.17;;;6.40;;
10805;SDS011;5455;53.224;6.000;2022-10-31T09:28:31;8.73;;;5.07;;
10805;SDS011;5455;53.224;6.000;2022-10-31T09:31:10;8.57;;;5.17;;
10805;SDS011;5455;53.224;6.000;2022-10-31T09:33:45;7.73;;;5.07;;
10805;SDS011;5455;53.224;6.000;2022-10-31T09:36:32;11.73;;;5.47;;
10805;SDS011;5455;53.224;6.000;2022-10-31T09:38:59;9.03;;;5.77;;
10805;SDS011;5455;53.224;6.000;2022-10-31T09:41:33;8.90;;;5.33;;
10805;SDS011;5455;53.224;6.000;2022-10-31T09:44:26;6.70;;;4.77;;
10805;SDS011;5455;53.224;6.000;2022-10-31T09:47:04;6.03;;;4.40;;
10805;SDS011;5455;53.224;6.000;2022-10-31T09:52:29;6.27;;;3.83;;
10805;SDS011;5455;53.224;6.000;2022-10-31T09:57:31;5.47;;;4.00;;
10805;SDS011;5455;53.224;6.000;2022-10-31T10:00:03;6.83;;;4.60;;
10805;SDS011;5455;53.224;6.000;2022-10-31T10:03:26;4.90;;;3.67;;
10805;SDS011;5455;53.224;6.000;2022-10-31T10:05:52;6.73;;;4.90;;
10805;SDS011;5455;53.224;6.000;2022-10-31T10:08:36;6.73;;;4.70;;
10805;SDS011;5455;53.224;6.000;2022-10-31T10:11:43;7.60;;;4.57;;
10805;SDS011;5455;53.224;6.000;2022-10-31T10:17:16;7.13;;;4.97;;
10805;SDS011;5455;53.224;6.000;2022-10-31T10:19:56;8.17;;;4.53;;
10805;SDS011;5455;53.224;6.000;2022-10-31T10:25:49;10.67;;;5.00;;
10805;SDS011;5455;53.224;6.000;2022-10-31T10:28:27;12.80;;;5.60;;
10805;SDS011;5455;53.224;6.000;2022-10-31T10:31:10;6.60;;;4.73;;
10805;SDS011;5455;53.224;6.000;2022-10-31T10:33:55;7.40;;;4.70;;
10805;SDS011;5455;53.224;6.000;2022-10-31T10:36:44;8.60;;;5.00;;
10805;SDS011;5455;53.224;6.000;2022-10-31T10:39:17;8.63;;;5.47;;
10805;SDS011;5455;53.224;6.000;2022-10-31T10:41:47;9.23;;;4.90;;
10805;SDS011;5455;53.224;6.000;2022-10-31T10:44:43;7.83;;;5.00;;
10805;SDS011;5455;53.224;6.000;2022-10-31T10:47:37;8.93;;;5.53;;
10805;SDS011;5455;53.224;6.000;2022-10-31T10:50:34;8.13;;;4.90;;
10805;SDS011;5455;53.224;6.000;2022-10-31T10:55:55;7.07;;;4.23;;
10805;SDS011;5455;53.224;6.000;2022-10-31T10:58:27;6.23;;;3.90;;
10805;SDS011;5455;53.224;6.000;2022-10-31T11:00:54;9.53;;;4.30;;
10805;SDS011;5455;53.224;6.000;2022-10-31T11:03:22;7.53;;;4.40;;
10805;SDS011;5455;53.224;6.000;2022-10-31T11:05:56;7.77;;;4.93;;
10805;SDS011;5455;53.224;6.000;2022-10-31T11:08:29;8.23;;;4.30;;
10805;SDS011;5455;53.224;6.000;2022-10-31T11:10:59;8.93;;;4.90;;
10805;SDS011;5455;53.224;6.000;2022-10-31T11:13:30;9.43;;;5.07;;
10805;SDS011;5455;53.224;6.000;2022-10-31T11:16:09;12.50;;;5.97;;
10805;SDS011;5455;53.224;6.000;2022-10-31T11:18:42;15.30;;;6.60;;
10805;SDS011;5455;53.224;6.000;2022-10-31T11:26:29;8.33;;;4.77;;
10805;SDS011;5455;53.224;6.000;2022-10-31T11:28:57;9.97;;;5.50;;
10805;SDS011;5455;53.224;6.000;2022-10-31T11:31:25;10.80;;;5.43;;
10805;SDS011;5455;53.224;6.000;2022-10-31T11:34:04;12.77;;;5.23;;
10805;SDS011;5455;53.224;6.000;2022-10-31T11:37:21;10.00;;;5.03;;
10805;SDS011;5455;53.224;6.000;2022-10-31T11:40:05;9.47;;;5.23;;
10805;SDS011;5455;53.224;6.000;2022-10-31T11:42:40;8.87;;;4.80;;
10805;SDS011;5455;53.224;6.000;2022-10-31T11:45:15;8.27;;;5.00;;
10805;SDS011;5455;53.224;6.000;2022-10-31T11:47:49;8.07;;;4.77;;
10805;SDS011;5455;53.224;6.000;2022-10-31T11:50:27;9.17;;;4.33;;
10805;SDS011;5455;53.224;6.000;2022-10-31T11:52:59;8.17;;;4.30;;
10805;SDS011;5455;53.224;6.000;2022-10-31T11:55:32;7.40;;;4.20;;
10805;SDS011;5455;53.224;6.000;2022-10-31T11:58:04;8.13;;;4.37;;
10805;SDS011;5455;53.224;6.000;2022-10-31T12:00:32;9.57;;;4.80;;
10805;SDS011;5455;53.224;6.000;2022-10-31T12:03:14;9.87;;;5.37;;
10805;SDS011;5455;53.224;6.000;2022-10-31T12:06:02;9.23;;;5.77;;
10805;SDS011;5455;53.224;6.000;2022-10-31T12:08:34;9.00;;;5.23;;
10805;SDS011;5455;53.224;6.000;2022-10-31T12:14:02;8.80;;;5.07;;
10805;SDS011;5455;53.224;6.000;2022-10-31T12:19:19;13.47;;;6.43;;
10805;SDS011;5455;53.224;6.000;2022-10-31T12:24:52;13.33;;;6.53;;
10805;SDS011;5455;53.224;6.000;2022-10-31T12:33:13;8.57;;;5.63;;
10805;SDS011;5455;53.224;6.000;2022-10-31T12:47:28;8.07;;;5.27;;
10805;SDS011;5455;53.224;6.000;2022-10-31T12:55:45;7.77;;;4.57;;
10805;SDS011;5455;53.224;6.000;2022-10-31T13:00:42;6.67;;;3.97;;
10805;SDS011;5455;53.224;6.000;2022-10-31T13:03:18;7.93;;;4.27;;
10805;SDS011;5455;53.224;6.000;2022-10-31T13:06:07;8.80;;;3.80;;
10805;SDS011;5455;53.224;6.000;2022-10-31T13:08:40;6.57;;;3.70;;
10805;SDS011;5455;53.224;6.000;2022-10-31T13:11:15;7.63;;;3.43;;
10805;SDS011;5455;53.224;6.000;2022-10-31T13:13:56;7.70;;;3.67;;
10805;SDS011;5455;53.224;6.000;2022-10-31T13:16:29;5.77;;;3.07;;
10805;SDS011;5455;53.224;6.000;2022-10-31T13:19:02;8.23;;;3.30;;
10805;SDS011;5455;53.224;6.000;2022-10-31T13:24:36;3.40;;;2.50;;
10805;SDS011;5455;53.224;6.000;2022-10-31T13:27:14;6.57;;;3.30;;
10805;SDS011;5455;53.224;6.000;2022-10-31T13:29:54;7.80;;;3.27;;
10805;SDS011;5455;53.224;6.000;2022-10-31T13:32:30;5.17;;;2.67;;
10805;SDS011;5455;53.224;6.000;2022-10-31T13:35:10;5.93;;;2.83;;
10805;SDS011;5455;53.224;6.000;2022-10-31T13:37:46;5.77;;;3.03;;
10805;SDS011;5455;53.224;6.000;2022-10-31T13:43:15;6.07;;;2.60;;
10805;SDS011;5455;53.224;6.000;2022-10-31T13:45:51;6.33;;;2.33;;
10805;SDS011;5455;53.224;6.000;2022-10-31T13:48:41;5.50;;;2.10;;
10805;SDS011;5455;53.224;6.000;2022-10-31T13:51:09;6.90;;;2.60;;
10805;SDS011;5455;53.224;6.000;2022-10-31T13:56:14;6.53;;;2.33;;
10805;SDS011;5455;53.224;6.000;2022-10-31T14:01:35;6.40;;;2.83;;
10805;SDS011;5455;53.224;6.000;2022-10-31T14:15:15;4.63;;;2.80;;
10805;SDS011;5455;53.224;6.000;2022-10-31T14:17:56;4.17;;;1.90;;
10805;SDS011;5455;53.224;6.000;2022-10-31T14:23:11;4.10;;;2.10;;
10805;SDS011;5455;53.224;6.000;2022-10-31T14:28:58;5.67;;;2.07;;
10805;SDS011;5455;53.224;6.000;2022-10-31T14:31:29;2.87;;;1.70;;
10805;SDS011;5455;53.224;6.000;2022-10-31T14:36:41;4.40;;;2.10;;
10805;SDS011;5455;53.224;6.000;2022-10-31T14:50:15;3.20;;;1.60;;
10805;SDS011;5455;53.224;6.000;2022-10-31T14:52:46;3.77;;;2.07;;
10805;SDS011;5455;53.224;6.000;2022-10-31T14:55:16;6.37;;;1.90;;
10805;SDS011;5455;53.224;6.000;2022-10-31T14:58:20;4.17;;;2.00;;
10805;SDS011;5455;53.224;6.000;2022-10-31T15:00:48;4.97;;;1.50;;
10805;SDS011;5455;53.224;6.000;2022-10-31T15:03:27;4.23;;;1.43;;
10805;SDS011;5455;53.224;6.000;2022-10-31T15:06:35;2.80;;;1.53;;
10805;SDS011;5455;53.224;6.000;2022-10-31T15:08:53;6.87;;;2.23;;
10805;SDS011;5455;53.224;6.000;2022-10-31T15:11:22;4.33;;;1.67;;
10805;SDS011;5455;53.224;6.000;2022-10-31T15:13:54;4.67;;;1.80;;
10805;SDS011;5455;53.224;6.000;2022-10-31T15:16:24;3.67;;;1.40;;
10805;SDS011;5455;53.224;6.000;2022-10-31T15:18:54;3.17;;;1.43;;
10805;SDS011;5455;53.224;6.000;2022-10-31T15:21:27;7.40;;;1.57;;
10805;SDS011;5455;53.224;6.000;2022-10-31T15:23:58;2.40;;;1.20;;
10805;SDS011;5455;53.224;6.000;2022-10-31T15:26:31;2.63;;;1.20;;
10805;SDS011;5455;53.224;6.000;2022-10-31T15:29:03;5.07;;;1.40;;
10805;SDS011;5455;53.224;6.000;2022-10-31T15:31:36;1.97;;;1.37;;
10805;SDS011;5455;53.224;6.000;2022-10-31T15:34:12;4.53;;;1.53;;
10805;SDS011;5455;53.224;6.000;2022-10-31T15:36:47;3.67;;;1.60;;
10805;SDS011;5455;53.224;6.000;2022-10-31T15:39:16;6.43;;;1.90;;
10805;SDS011;5455;53.224;6.000;2022-10-31T15:41:51;3.70;;;1.70;;
10805;SDS011;5455;53.224;6.000;2022-10-31T15:44:21;5.90;;;2.40;;
10805;SDS011;5455;53.224;6.000;2022-10-31T15:46:53;8.23;;;2.77;;
10805;SDS011;5455;53.224;6.000;2022-10-31T15:49:54;2.80;;;1.90;;
10805;SDS011;5455;53.224;6.000;2022-10-31T15:52:29;4.93;;;2.50;;
10805;SDS011;5455;53.224;6.000;2022-10-31T15:55:05;5.63;;;2.40;;
10805;SDS011;5455;53.224;6.000;2022-10-31T15:57:43;7.23;;;2.63;;
10805;SDS011;5455;53.224;6.000;2022-10-31T16:00:30;4.80;;;2.40;;
10805;SDS011;5455;53.224;6.000;2022-10-31T16:03:19;5.67;;;2.40;;
10805;SDS011;5455;53.224;6.000;2022-10-31T16:05:51;6.30;;;2.60;;
10805;SDS011;5455;53.224;6.000;2022-10-31T16:11:13;9.83;;;2.60;;
10805;SDS011;5455;53.224;6.000;2022-10-31T16:14:00;8.90;;;2.87;;
10805;SDS011;5455;53.224;6.000;2022-10-31T16:16:46;8.20;;;2.80;;
10805;SDS011;5455;53.224;6.000;2022-10-31T16:19:22;9.50;;;3.57;;
10805;SDS011;5455;53.224;6.000;2022-10-31T16:21:53;5.80;;;2.90;;
10805;SDS011;5455;53.224;6.000;2022-10-31T16:24:26;6.43;;;2.77;;
10805;SDS011;5455;53.224;6.000;2022-10-31T16:27:02;8.23;;;3.20;;
10805;SDS011;5455;53.224;6.000;2022-10-31T16:29:37;10.40;;;3.27;;
10805;SDS011;5455;53.224;6.000;2022-10-31T16:32:23;6.83;;;3.80;;
10805;SDS011;5455;53.224;6.000;2022-10-31T16:35:00;6.00;;;3.10;;
10805;SDS011;5455;53.224;6.000;2022-10-31T16:37:28;7.20;;;3.77;;
10805;SDS011;5455;53.224;6.000;2022-10-31T16:39:55;14.53;;;4.53;;
10805;SDS011;5455;53.224;6.000;2022-10-31T16:42:21;9.43;;;4.03;;
10805;SDS011;5455;53.224;6.000;2022-10-31T16:44:49;11.60;;;4.07;;
10805;SDS011;5455;53.224;6.000;2022-10-31T16:47:16;9.83;;;4.83;;
10805;SDS011;5455;53.224;6.000;2022-10-31T16:49:48;9.67;;;4.20;;
10805;SDS011;5455;53.224;6.000;2022-10-31T16:52:16;10.27;;;3.80;;
10805;SDS011;5455;53.224;6.000;2022-10-31T16:54:43;7.73;;;4.23;;
10805;SDS011;5455;53.224;6.000;2022-10-31T16:57:13;8.63;;;4.37;;
10805;SDS011;5455;53.224;6.000;2022-10-31T16:59:42;9.77;;;4.03;;
10805;SDS011;5455;53.224;6.000;2022-10-31T17:02:14;8.27;;;3.57;;
10805;SDS011;5455;53.224;6.000;2022-10-31T17:04:42;12.20;;;4.50;;
10805;SDS011;5455;53.224;6.000;2022-10-31T17:07:10;10.43;;;3.97;;
10805;SDS011;5455;53.224;6.000;2022-10-31T17:09:37;11.13;;;3.70;;
10805;SDS011;5455;53.224;6.000;2022-10-31T17:12:04;6.20;;;3.50;;
10805;SDS011;5455;53.224;6.000;2022-10-31T17:14:33;8.87;;;3.70;;
10805;SDS011;5455;53.224;6.000;2022-10-31T17:17:00;10.00;;;3.80;;
10805;SDS011;5455;53.224;6.000;2022-10-31T17:19:27;8.60;;;3.23;;
10805;SDS011;5455;53.224;6.000;2022-10-31T17:21:54;7.53;;;3.53;;
10805;SDS011;5455;53.224;6.000;2022-10-31T17:24:21;6.63;;;3.50;;
10805;SDS011;5455;53.224;6.000;2022-10-31T17:26:48;8.97;;;3.90;;
10805;SDS011;5455;53.224;6.000;2022-10-31T17:29:15;9.27;;;3.90;;
10805;SDS011;5455;53.224;6.000;2022-10-31T17:31:41;8.97;;;4.30;;
10805;SDS011;5455;53.224;6.000;2022-10-31T17:34:09;11.13;;;4.13;;
10805;SDS011;5455;53.224;6.000;2022-10-31T17:36:35;7.90;;;3.60;;
10805;SDS011;5455;53.224;6.000;2022-10-31T17:39:03;7.80;;;4.13;;
10805;SDS011;5455;53.224;6.000;2022-10-31T17:41:32;6.77;;;3.77;;
10805;SDS011;5455;53.224;6.000;2022-10-31T17:43:59;7.60;;;4.60;;
10805;SDS011;5455;53.224;6.000;2022-10-31T17:46:26;7.13;;;4.40;;
10805;SDS011;5455;53.224;6.000;2022-10-31T17:48:54;8.00;;;4.60;;
10805;SDS011;5455;53.224;6.000;2022-10-31T17:51:21;9.33;;;4.90;;
10805;SDS011;5455;53.224;6.000;2022-10-31T17:53:48;9.50;;;5.17;;
10805;SDS011;5455;53.224;6.000;2022-10-31T17:56:15;8.80;;;5.00;;